sensor_id;sensor_type;location;lat;lon;timestamp;P1;durP1;ratioP1;P2;durP2;ratioP2
73428;SDS011;61643;49.564;17.412;2022-08-01T00:00:06;4.87;;;2.07;;
73428;SDS011;61643;49.564;17.412;2022-08-01T00:02:33;4.00;;;1.70;;
73428;SDS011;61643;49.564;17.412;2022-08-01T00:04:58;2.30;;;1.95;;
73428;SDS011;61643;49.564;17.412;2022-08-01T00:07:25;2.25;;;2.00;;
73428;SDS011;61643;49.564;17.412;2022-08-01T00:09:50;2.55;;;1.92;;
73428;SDS011;61643;49.564;17.412;2022-08-01T00:12:16;4.57;;;2.22;;
73428;SDS011;61643;49.564;17.412;2022-08-01T00:14:41;2.77;;;2.03;;
73428;SDS011;61643;49.564;17.412;2022-08-01T00:17:07;5.20;;;2.10;;
73428;SDS011;61643;49.564;17.412;2022-08-01T00:19:32;3.55;;;1.95;;
73428;SDS011;61643;49.564;17.412;2022-08-01T00:21:58;4.35;;;1.92;;
73428;SDS011;61643;49.564;17.412;2022-08-01T00:24:24;3.88;;;1.98;;
73428;SDS011;61643;49.564;17.412;2022-08-01T00:26:49;3.63;;;2.20;;
73428;SDS011;61643;49.564;17.412;2022-08-01T00:29:14;3.33;;;1.90;;
73428;SDS011;61643;49.564;17.412;2022-08-01T00:31:40;3.47;;;1.90;;
73428;SDS011;61643;49.564;17.412;2022-08-01T00:34:05;3.00;;;1.87;;
73428;SDS011;61643;49.564;17.412;2022-08-01T00:36:31;3.42;;;2.67;;
73428;SDS011;61643;49.564;17.412;2022-08-01T00:38:56;3.30;;;1.97;;
73428;SDS011;61643;49.564;17.412;2022-08-01T00:41:22;6.20;;;2.20;;
73428;SDS011;61643;49.564;17.412;2022-08-01T00:43:47;4.67;;;2.03;;
73428;SDS011;61643;49.564;17.412;2022-08-01T00:46:13;4.82;;;1.95;;
73428;SDS011;61643;49.564;17.412;2022-08-01T00:48:38;2.38;;;1.70;;
73428;SDS011;61643;49.564;17.412;2022-08-01T00:51:04;2.15;;;1.95;;
73428;SDS011;61643;49.564;17.412;2022-08-01T00:53:30;2.33;;;2.13;;
73428;SDS011;61643;49.564;17.412;2022-08-01T00:55:55;4.45;;;2.35;;
73428;SDS011;61643;49.564;17.412;2022-08-01T00:58:21;2.25;;;2.05;;
73428;SDS011;61643;49.564;17.412;2022-08-01T01:00:47;3.70;;;2.22;;
73428;SDS011;61643;49.564;17.412;2022-08-01T01:03:13;5.55;;;2.60;;
73428;SDS011;61643;49.564;17.412;2022-08-01T01:05:45;3.17;;;2.22;;
73428;SDS011;61643;49.564;17.412;2022-08-01T01:08:22;6.00;;;2.50;;
73428;SDS011;61643;49.564;17.412;2022-08-01T01:10:54;5.00;;;2.10;;
73428;SDS011;61643;49.564;17.412;2022-08-01T01:13:28;4.43;;;2.22;;
73428;SDS011;61643;49.564;17.412;2022-08-01T01:16:05;2.78;;;1.98;;
73428;SDS011;61643;49.564;17.412;2022-08-01T01:29:34;4.25;;;2.58;;
73428;SDS011;61643;49.564;17.412;2022-08-01T01:34:31;3.92;;;2.60;;
73428;SDS011;61643;49.564;17.412;2022-08-01T01:37:01;5.60;;;2.75;;
73428;SDS011;61643;49.564;17.412;2022-08-01T01:39:27;2.90;;;2.58;;
73428;SDS011;61643;49.564;17.412;2022-08-01T01:41:54;3.55;;;2.47;;
73428;SDS011;61643;49.564;17.412;2022-08-01T01:44:21;4.43;;;2.40;;
73428;SDS011;61643;49.564;17.412;2022-08-01T01:46:47;2.57;;;2.37;;
73428;SDS011;61643;49.564;17.412;2022-08-01T01:49:14;7.05;;;2.78;;
73428;SDS011;61643;49.564;17.412;2022-08-01T01:51:42;4.07;;;2.50;;
73428;SDS011;61643;49.564;17.412;2022-08-01T01:54:11;4.07;;;2.40;;
73428;SDS011;61643;49.564;17.412;2022-08-01T01:56:36;4.60;;;2.50;;
73428;SDS011;61643;49.564;17.412;2022-08-01T01:59:13;4.22;;;2.75;;
73428;SDS011;61643;49.564;17.412;2022-08-01T02:01:43;6.05;;;2.72;;
73428;SDS011;61643;49.564;17.412;2022-08-01T02:04:09;3.58;;;2.58;;
73428;SDS011;61643;49.564;17.412;2022-08-01T02:06:36;4.15;;;2.42;;
73428;SDS011;61643;49.564;17.412;2022-08-01T02:09:03;4.13;;;2.60;;
73428;SDS011;61643;49.564;17.412;2022-08-01T02:11:29;3.53;;;2.53;;
73428;SDS011;61643;49.564;17.412;2022-08-01T02:13:57;6.50;;;2.80;;
73428;SDS011;61643;49.564;17.412;2022-08-01T02:16:28;2.90;;;2.35;;
73428;SDS011;61643;49.564;17.412;2022-08-01T02:18:58;2.80;;;2.45;;
73428;SDS011;61643;49.564;17.412;2022-08-01T02:21:29;7.07;;;2.45;;
73428;SDS011;61643;49.564;17.412;2022-08-01T02:24:00;5.78;;;2.65;;
73428;SDS011;61643;49.564;17.412;2022-08-01T02:26:39;3.95;;;2.67;;
73428;SDS011;61643;49.564;17.412;2022-08-01T02:29:10;7.13;;;2.67;;
73428;SDS011;61643;49.564;17.412;2022-08-01T02:31:38;5.55;;;2.50;;
73428;SDS011;61643;49.564;17.412;2022-08-01T02:34:06;4.10;;;2.72;;
73428;SDS011;61643;49.564;17.412;2022-08-01T02:36:35;4.10;;;3.00;;
73428;SDS011;61643;49.564;17.412;2022-08-01T02:39:03;4.75;;;2.78;;
73428;SDS011;61643;49.564;17.412;2022-08-01T02:41:35;4.90;;;2.67;;
73428;SDS011;61643;49.564;17.412;2022-08-01T02:44:05;2.88;;;2.58;;
73428;SDS011;61643;49.564;17.412;2022-08-01T02:46:34;3.15;;;2.65;;
73428;SDS011;61643;49.564;17.412;2022-08-01T02:49:03;7.22;;;2.83;;
73428;SDS011;61643;49.564;17.412;2022-08-01T02:51:31;6.13;;;2.85;;
73428;SDS011;61643;49.564;17.412;2022-08-01T02:53:59;5.75;;;3.05;;
73428;SDS011;61643;49.564;17.412;2022-08-01T02:56:26;3.33;;;2.72;;
73428;SDS011;61643;49.564;17.412;2022-08-01T02:59:00;5.28;;;2.72;;
73428;SDS011;61643;49.564;17.412;2022-08-01T03:01:28;4.53;;;2.60;;
73428;SDS011;61643;49.564;17.412;2022-08-01T03:03:54;4.90;;;2.78;;
73428;SDS011;61643;49.564;17.412;2022-08-01T03:06:20;4.82;;;2.72;;
73428;SDS011;61643;49.564;17.412;2022-08-01T03:08:46;3.00;;;2.70;;
73428;SDS011;61643;49.564;17.412;2022-08-01T03:11:13;3.65;;;2.88;;
73428;SDS011;61643;49.564;17.412;2022-08-01T03:13:40;5.00;;;2.72;;
73428;SDS011;61643;49.564;17.412;2022-08-01T03:16:08;3.38;;;2.63;;
73428;SDS011;61643;49.564;17.412;2022-08-01T03:18:35;5.38;;;2.58;;
73428;SDS011;61643;49.564;17.412;2022-08-01T03:21:02;3.75;;;2.88;;
73428;SDS011;61643;49.564;17.412;2022-08-01T03:23:30;5.47;;;3.00;;
73428;SDS011;61643;49.564;17.412;2022-08-01T03:25:58;3.78;;;2.80;;
73428;SDS011;61643;49.564;17.412;2022-08-01T03:28:26;3.95;;;2.70;;
73428;SDS011;61643;49.564;17.412;2022-08-01T03:30:51;4.25;;;3.00;;
73428;SDS011;61643;49.564;17.412;2022-08-01T03:33:18;2.85;;;2.63;;
73428;SDS011;61643;49.564;17.412;2022-08-01T03:35:45;4.82;;;3.05;;
73428;SDS011;61643;49.564;17.412;2022-08-01T03:38:13;4.13;;;2.80;;
73428;SDS011;61643;49.564;17.412;2022-08-01T03:40:45;4.20;;;2.65;;
73428;SDS011;61643;49.564;17.412;2022-08-01T03:43:37;4.95;;;2.70;;
73428;SDS011;61643;49.564;17.412;2022-08-01T03:46:07;6.82;;;2.95;;
73428;SDS011;61643;49.564;17.412;2022-08-01T03:48:37;4.55;;;2.85;;
73428;SDS011;61643;49.564;17.412;2022-08-01T03:51:07;3.00;;;2.63;;
73428;SDS011;61643;49.564;17.412;2022-08-01T03:53:33;4.25;;;2.78;;
73428;SDS011;61643;49.564;17.412;2022-08-01T03:56:01;3.63;;;2.67;;
73428;SDS011;61643;49.564;17.412;2022-08-01T03:58:29;3.42;;;2.60;;
73428;SDS011;61643;49.564;17.412;2022-08-01T04:00:55;3.70;;;2.97;;
73428;SDS011;61643;49.564;17.412;2022-08-01T04:03:21;4.15;;;3.08;;
73428;SDS011;61643;49.564;17.412;2022-08-01T04:05:47;3.30;;;3.00;;
73428;SDS011;61643;49.564;17.412;2022-08-01T04:08:12;3.97;;;3.10;;
73428;SDS011;61643;49.564;17.412;2022-08-01T04:10:38;3.13;;;2.83;;
73428;SDS011;61643;49.564;17.412;2022-08-01T04:13:03;5.35;;;3.50;;
73428;SDS011;61643;49.564;17.412;2022-08-01T04:15:29;4.60;;;3.23;;
73428;SDS011;61643;49.564;17.412;2022-08-01T04:17:54;4.82;;;2.95;;
73428;SDS011;61643;49.564;17.412;2022-08-01T04:20:20;4.77;;;3.30;;
73428;SDS011;61643;49.564;17.412;2022-08-01T04:22:45;3.85;;;2.97;;
73428;SDS011;61643;49.564;17.412;2022-08-01T04:25:12;3.93;;;3.23;;
73428;SDS011;61643;49.564;17.412;2022-08-01T04:27:43;3.80;;;3.03;;
73428;SDS011;61643;49.564;17.412;2022-08-01T04:30:11;3.70;;;2.92;;
73428;SDS011;61643;49.564;17.412;2022-08-01T04:35:07;4.97;;;3.30;;
73428;SDS011;61643;49.564;17.412;2022-08-01T04:37:36;3.80;;;2.83;;
73428;SDS011;61643;49.564;17.412;2022-08-01T04:40:06;6.18;;;3.30;;
73428;SDS011;61643;49.564;17.412;2022-08-01T04:42:32;5.60;;;3.03;;
73428;SDS011;61643;49.564;17.412;2022-08-01T04:44:58;4.55;;;2.97;;
73428;SDS011;61643;49.564;17.412;2022-08-01T04:47:25;5.07;;;3.33;;
73428;SDS011;61643;49.564;17.412;2022-08-01T04:49:50;5.85;;;3.35;;
73428;SDS011;61643;49.564;17.412;2022-08-01T04:52:16;3.92;;;3.45;;
73428;SDS011;61643;49.564;17.412;2022-08-01T04:54:42;4.15;;;2.85;;
73428;SDS011;61643;49.564;17.412;2022-08-01T04:57:08;6.43;;;3.10;;
73428;SDS011;61643;49.564;17.412;2022-08-01T04:59:35;4.85;;;3.22;;
73428;SDS011;61643;49.564;17.412;2022-08-01T05:02:13;3.78;;;3.40;;
73428;SDS011;61643;49.564;17.412;2022-08-01T05:04:41;4.20;;;3.40;;
73428;SDS011;61643;49.564;17.412;2022-08-01T05:07:07;3.90;;;3.40;;
73428;SDS011;61643;49.564;17.412;2022-08-01T05:09:33;3.72;;;3.22;;
73428;SDS011;61643;49.564;17.412;2022-08-01T05:12:01;4.97;;;3.33;;
73428;SDS011;61643;49.564;17.412;2022-08-01T05:14:28;4.43;;;3.50;;
73428;SDS011;61643;49.564;17.412;2022-08-01T05:16:56;6.38;;;3.80;;
73428;SDS011;61643;49.564;17.412;2022-08-01T05:19:28;4.57;;;3.80;;
73428;SDS011;61643;49.564;17.412;2022-08-01T05:21:57;4.38;;;3.72;;
73428;SDS011;61643;49.564;17.412;2022-08-01T05:24:23;6.38;;;4.03;;
73428;SDS011;61643;49.564;17.412;2022-08-01T05:26:49;4.78;;;3.92;;
73428;SDS011;61643;49.564;17.412;2022-08-01T05:29:14;5.50;;;3.50;;
73428;SDS011;61643;49.564;17.412;2022-08-01T05:31:40;5.35;;;3.63;;
73428;SDS011;61643;49.564;17.412;2022-08-01T05:34:06;4.57;;;3.47;;
73428;SDS011;61643;49.564;17.412;2022-08-01T05:36:31;6.88;;;3.95;;
73428;SDS011;61643;49.564;17.412;2022-08-01T05:38:57;5.72;;;4.00;;
73428;SDS011;61643;49.564;17.412;2022-08-01T05:41:22;5.28;;;3.83;;
73428;SDS011;61643;49.564;17.412;2022-08-01T05:43:48;4.10;;;3.70;;
73428;SDS011;61643;49.564;17.412;2022-08-01T05:46:13;6.30;;;3.93;;
73428;SDS011;61643;49.564;17.412;2022-08-01T05:48:38;5.30;;;3.97;;
73428;SDS011;61643;49.564;17.412;2022-08-01T05:51:04;6.83;;;4.53;;
73428;SDS011;61643;49.564;17.412;2022-08-01T05:53:29;7.67;;;3.93;;
73428;SDS011;61643;49.564;17.412;2022-08-01T05:55:55;5.60;;;4.15;;
73428;SDS011;61643;49.564;17.412;2022-08-01T05:58:21;6.72;;;4.10;;
73428;SDS011;61643;49.564;17.412;2022-08-01T06:00:47;7.15;;;4.53;;
73428;SDS011;61643;49.564;17.412;2022-08-01T06:03:12;10.05;;;4.68;;
73428;SDS011;61643;49.564;17.412;2022-08-01T06:05:39;6.85;;;4.15;;
73428;SDS011;61643;49.564;17.412;2022-08-01T06:08:04;10.70;;;4.70;;
73428;SDS011;61643;49.564;17.412;2022-08-01T06:10:30;7.93;;;4.88;;
73428;SDS011;61643;49.564;17.412;2022-08-01T06:12:55;6.07;;;4.57;;
73428;SDS011;61643;49.564;17.412;2022-08-01T06:15:21;7.28;;;4.45;;
73428;SDS011;61643;49.564;17.412;2022-08-01T06:17:46;6.17;;;3.97;;
73428;SDS011;61643;49.564;17.412;2022-08-01T06:20:11;5.80;;;4.23;;
73428;SDS011;61643;49.564;17.412;2022-08-01T06:22:37;6.00;;;4.23;;
73428;SDS011;61643;49.564;17.412;2022-08-01T06:25:02;6.45;;;4.47;;
73428;SDS011;61643;49.564;17.412;2022-08-01T06:27:28;6.97;;;4.45;;
73428;SDS011;61643;49.564;17.412;2022-08-01T06:29:53;8.20;;;4.93;;
73428;SDS011;61643;49.564;17.412;2022-08-01T06:32:20;8.32;;;5.03;;
73428;SDS011;61643;49.564;17.412;2022-08-01T06:34:47;8.10;;;4.45;;
73428;SDS011;61643;49.564;17.412;2022-08-01T06:37:13;6.35;;;4.78;;
73428;SDS011;61643;49.564;17.412;2022-08-01T06:39:39;6.93;;;4.97;;
73428;SDS011;61643;49.564;17.412;2022-08-01T06:42:05;7.05;;;4.85;;
73428;SDS011;61643;49.564;17.412;2022-08-01T06:44:30;5.43;;;4.65;;
73428;SDS011;61643;49.564;17.412;2022-08-01T06:46:56;6.77;;;4.60;;
73428;SDS011;61643;49.564;17.412;2022-08-01T06:49:23;5.65;;;5.00;;
73428;SDS011;61643;49.564;17.412;2022-08-01T06:51:49;8.05;;;5.22;;
73428;SDS011;61643;49.564;17.412;2022-08-01T06:54:14;7.47;;;5.32;;
73428;SDS011;61643;49.564;17.412;2022-08-01T06:56:41;12.65;;;4.88;;
73428;SDS011;61643;49.564;17.412;2022-08-01T06:59:06;9.02;;;4.68;;
73428;SDS011;61643;49.564;17.412;2022-08-01T07:01:31;7.07;;;5.83;;
73428;SDS011;61643;49.564;17.412;2022-08-01T07:03:57;5.30;;;4.80;;
73428;SDS011;61643;49.564;17.412;2022-08-01T07:06:23;6.80;;;4.87;;
73428;SDS011;61643;49.564;17.412;2022-08-01T07:08:49;6.28;;;5.28;;
73428;SDS011;61643;49.564;17.412;2022-08-01T07:11:14;7.28;;;5.22;;
73428;SDS011;61643;49.564;17.412;2022-08-01T07:13:39;8.47;;;5.27;;
73428;SDS011;61643;49.564;17.412;2022-08-01T07:16:05;7.53;;;5.72;;
73428;SDS011;61643;49.564;17.412;2022-08-01T07:18:30;7.60;;;5.53;;
73428;SDS011;61643;49.564;17.412;2022-08-01T07:20:56;7.27;;;5.30;;
73428;SDS011;61643;49.564;17.412;2022-08-01T07:23:21;6.77;;;4.73;;
73428;SDS011;61643;49.564;17.412;2022-08-01T07:25:47;11.20;;;5.20;;
73428;SDS011;61643;49.564;17.412;2022-08-01T07:28:13;6.93;;;4.80;;
73428;SDS011;61643;49.564;17.412;2022-08-01T07:30:39;6.07;;;4.50;;
73428;SDS011;61643;49.564;17.412;2022-08-01T07:33:07;7.18;;;3.97;;
73428;SDS011;61643;49.564;17.412;2022-08-01T07:35:33;4.57;;;3.92;;
73428;SDS011;61643;49.564;17.412;2022-08-01T07:37:59;6.95;;;4.85;;
73428;SDS011;61643;49.564;17.412;2022-08-01T07:40:24;7.30;;;4.78;;
73428;SDS011;61643;49.564;17.412;2022-08-01T07:42:49;7.70;;;4.50;;
73428;SDS011;61643;49.564;17.412;2022-08-01T07:45:15;6.00;;;4.75;;
73428;SDS011;61643;49.564;17.412;2022-08-01T07:47:40;7.57;;;4.43;;
73428;SDS011;61643;49.564;17.412;2022-08-01T07:50:06;7.63;;;4.75;;
73428;SDS011;61643;49.564;17.412;2022-08-01T07:52:32;8.32;;;5.13;;
73428;SDS011;61643;49.564;17.412;2022-08-01T07:54:57;6.57;;;5.90;;
73428;SDS011;61643;49.564;17.412;2022-08-01T07:57:23;6.40;;;5.55;;
73428;SDS011;61643;49.564;17.412;2022-08-01T07:59:49;7.00;;;5.63;;
73428;SDS011;61643;49.564;17.412;2022-08-01T08:02:15;6.40;;;5.40;;
73428;SDS011;61643;49.564;17.412;2022-08-01T08:04:40;7.77;;;5.63;;
73428;SDS011;61643;49.564;17.412;2022-08-01T08:07:06;6.30;;;5.28;;
73428;SDS011;61643;49.564;17.412;2022-08-01T08:09:32;7.90;;;5.30;;
73428;SDS011;61643;49.564;17.412;2022-08-01T08:11:57;7.28;;;5.18;;
73428;SDS011;61643;49.564;17.412;2022-08-01T08:14:23;5.87;;;4.90;;
73428;SDS011;61643;49.564;17.412;2022-08-01T08:16:49;7.93;;;5.22;;
73428;SDS011;61643;49.564;17.412;2022-08-01T08:19:15;9.10;;;5.40;;
73428;SDS011;61643;49.564;17.412;2022-08-01T08:21:40;7.32;;;5.15;;
73428;SDS011;61643;49.564;17.412;2022-08-01T08:24:07;7.47;;;5.50;;
73428;SDS011;61643;49.564;17.412;2022-08-01T08:26:46;8.45;;;5.60;;
73428;SDS011;61643;49.564;17.412;2022-08-01T08:29:16;8.55;;;5.60;;
73428;SDS011;61643;49.564;17.412;2022-08-01T08:31:41;9.15;;;5.45;;
73428;SDS011;61643;49.564;17.412;2022-08-01T08:34:07;7.57;;;5.70;;
73428;SDS011;61643;49.564;17.412;2022-08-01T08:36:33;6.60;;;5.00;;
73428;SDS011;61643;49.564;17.412;2022-08-01T08:38:59;7.75;;;5.35;;
73428;SDS011;61643;49.564;17.412;2022-08-01T08:41:30;6.63;;;5.13;;
73428;SDS011;61643;49.564;17.412;2022-08-01T08:43:57;9.70;;;5.32;;
73428;SDS011;61643;49.564;17.412;2022-08-01T08:46:25;8.23;;;5.53;;
73428;SDS011;61643;49.564;17.412;2022-08-01T08:48:52;9.00;;;5.25;;
73428;SDS011;61643;49.564;17.412;2022-08-01T08:51:18;6.28;;;5.22;;
73428;SDS011;61643;49.564;17.412;2022-08-01T08:53:44;10.15;;;6.50;;
73428;SDS011;61643;49.564;17.412;2022-08-01T08:56:12;6.80;;;5.53;;
73428;SDS011;61643;49.564;17.412;2022-08-01T08:58:40;7.95;;;6.05;;
73428;SDS011;61643;49.564;17.412;2022-08-01T09:01:08;8.25;;;6.43;;
73428;SDS011;61643;49.564;17.412;2022-08-01T09:03:34;8.93;;;6.40;;
73428;SDS011;61643;49.564;17.412;2022-08-01T09:06:00;9.27;;;5.57;;
73428;SDS011;61643;49.564;17.412;2022-08-01T09:08:25;8.93;;;5.88;;
73428;SDS011;61643;49.564;17.412;2022-08-01T09:10:51;6.15;;;5.13;;
73428;SDS011;61643;49.564;17.412;2022-08-01T09:13:16;6.45;;;5.57;;
73428;SDS011;61643;49.564;17.412;2022-08-01T09:26:07;9.23;;;7.03;;
73428;SDS011;61643;49.564;17.412;2022-08-01T09:31:07;7.15;;;5.25;;
73428;SDS011;61643;49.564;17.412;2022-08-01T09:33:47;7.68;;;5.65;;
73428;SDS011;61643;49.564;17.412;2022-08-01T09:36:17;7.70;;;5.32;;
73428;SDS011;61643;49.564;17.412;2022-08-01T09:38:43;5.38;;;4.85;;
73428;SDS011;61643;49.564;17.412;2022-08-01T09:41:09;6.47;;;5.15;;
73428;SDS011;61643;49.564;17.412;2022-08-01T09:43:36;5.78;;;5.05;;
73428;SDS011;61643;49.564;17.412;2022-08-01T09:46:11;6.85;;;4.90;;
73428;SDS011;61643;49.564;17.412;2022-08-01T09:48:37;7.32;;;5.30;;
73428;SDS011;61643;49.564;17.412;2022-08-01T09:51:04;9.57;;;4.97;;
73428;SDS011;61643;49.564;17.412;2022-08-01T09:56:25;6.60;;;5.07;;
73428;SDS011;61643;49.564;17.412;2022-08-01T09:58:55;5.88;;;4.90;;
73428;SDS011;61643;49.564;17.412;2022-08-01T10:01:22;7.80;;;5.18;;
73428;SDS011;61643;49.564;17.412;2022-08-01T10:04:08;6.05;;;4.82;;
73428;SDS011;61643;49.564;17.412;2022-08-01T10:06:36;6.25;;;5.60;;
73428;SDS011;61643;49.564;17.412;2022-08-01T10:09:02;6.40;;;5.03;;
73428;SDS011;61643;49.564;17.412;2022-08-01T10:11:28;9.63;;;5.63;;
73428;SDS011;61643;49.564;17.412;2022-08-01T10:13:55;7.00;;;5.00;;
73428;SDS011;61643;49.564;17.412;2022-08-01T10:16:25;6.72;;;5.65;;
73428;SDS011;61643;49.564;17.412;2022-08-01T10:18:52;8.90;;;5.70;;
73428;SDS011;61643;49.564;17.412;2022-08-01T10:21:18;7.72;;;5.25;;
73428;SDS011;61643;49.564;17.412;2022-08-01T10:23:45;6.72;;;4.75;;
73428;SDS011;61643;49.564;17.412;2022-08-01T10:26:11;6.82;;;5.00;;
73428;SDS011;61643;49.564;17.412;2022-08-01T10:28:37;5.80;;;4.88;;
73428;SDS011;61643;49.564;17.412;2022-08-01T10:31:04;6.97;;;5.28;;
73428;SDS011;61643;49.564;17.412;2022-08-01T10:33:31;7.28;;;5.15;;
73428;SDS011;61643;49.564;17.412;2022-08-01T10:35:56;8.32;;;4.95;;
73428;SDS011;61643;49.564;17.412;2022-08-01T10:38:22;5.80;;;4.70;;
73428;SDS011;61643;49.564;17.412;2022-08-01T10:40:48;6.60;;;4.28;;
73428;SDS011;61643;49.564;17.412;2022-08-01T10:43:15;6.18;;;4.30;;
73428;SDS011;61643;49.564;17.412;2022-08-01T10:45:44;5.82;;;3.88;;
73428;SDS011;61643;49.564;17.412;2022-08-01T10:48:24;5.03;;;4.00;;
73428;SDS011;61643;49.564;17.412;2022-08-01T10:50:58;4.70;;;4.00;;
73428;SDS011;61643;49.564;17.412;2022-08-01T10:53:26;5.22;;;4.13;;
73428;SDS011;61643;49.564;17.412;2022-08-01T10:56:02;3.80;;;3.35;;
73428;SDS011;61643;49.564;17.412;2022-08-01T10:58:32;4.65;;;3.65;;
73428;SDS011;61643;49.564;17.412;2022-08-01T11:09:00;12.25;;;4.28;;
73428;SDS011;61643;49.564;17.412;2022-08-01T11:11:27;5.35;;;3.58;;
73428;SDS011;61643;49.564;17.412;2022-08-01T11:16:29;7.88;;;3.30;;
73428;SDS011;61643;49.564;17.412;2022-08-01T11:18:56;9.82;;;3.13;;
73428;SDS011;61643;49.564;17.412;2022-08-01T11:21:44;3.30;;;2.90;;
73428;SDS011;61643;49.564;17.412;2022-08-01T11:24:43;4.70;;;3.00;;
73428;SDS011;61643;49.564;17.412;2022-08-01T11:27:17;5.18;;;3.22;;
73428;SDS011;61643;49.564;17.412;2022-08-01T11:29:43;5.32;;;3.47;;
73428;SDS011;61643;49.564;17.412;2022-08-01T11:32:22;6.72;;;3.40;;
73428;SDS011;61643;49.564;17.412;2022-08-01T11:34:52;7.00;;;3.40;;
73428;SDS011;61643;49.564;17.412;2022-08-01T11:37:27;4.43;;;3.42;;
73428;SDS011;61643;49.564;17.412;2022-08-01T11:42:48;4.13;;;3.33;;
73428;SDS011;61643;49.564;17.412;2022-08-01T11:45:16;4.55;;;3.15;;
73428;SDS011;61643;49.564;17.412;2022-08-01T11:47:45;3.67;;;2.97;;
73428;SDS011;61643;49.564;17.412;2022-08-01T11:53:10;3.10;;;2.83;;
73428;SDS011;61643;49.564;17.412;2022-08-01T11:55:43;3.28;;;2.97;;
73428;SDS011;61643;49.564;17.412;2022-08-01T11:58:13;3.38;;;3.08;;
73428;SDS011;61643;49.564;17.412;2022-08-01T12:00:40;3.60;;;3.30;;
73428;SDS011;61643;49.564;17.412;2022-08-01T12:03:06;4.88;;;3.90;;
73428;SDS011;61643;49.564;17.412;2022-08-01T12:08:01;3.30;;;3.00;;
73428;SDS011;61643;49.564;17.412;2022-08-01T12:10:29;4.78;;;3.30;;
73428;SDS011;61643;49.564;17.412;2022-08-01T12:13:04;3.78;;;3.38;;
73428;SDS011;61643;49.564;17.412;2022-08-01T12:15:35;4.13;;;3.40;;
73428;SDS011;61643;49.564;17.412;2022-08-01T12:18:03;4.88;;;3.45;;
73428;SDS011;61643;49.564;17.412;2022-08-01T12:20:31;3.88;;;3.47;;
73428;SDS011;61643;49.564;17.412;2022-08-01T12:22:59;5.95;;;3.60;;
73428;SDS011;61643;49.564;17.412;2022-08-01T12:27:51;4.53;;;3.47;;
73428;SDS011;61643;49.564;17.412;2022-08-01T12:30:18;4.32;;;3.92;;
73428;SDS011;61643;49.564;17.412;2022-08-01T12:32:49;4.88;;;3.45;;
73428;SDS011;61643;49.564;17.412;2022-08-01T12:35:19;4.00;;;3.60;;
73428;SDS011;61643;49.564;17.412;2022-08-01T12:37:48;5.00;;;3.30;;
73428;SDS011;61643;49.564;17.412;2022-08-01T12:42:43;5.70;;;3.40;;
73428;SDS011;61643;49.564;17.412;2022-08-01T12:45:11;4.72;;;3.72;;
73428;SDS011;61643;49.564;17.412;2022-08-01T12:47:39;3.80;;;3.50;;
73428;SDS011;61643;49.564;17.412;2022-08-01T12:50:05;3.60;;;3.30;;
73428;SDS011;61643;49.564;17.412;2022-08-01T12:52:33;4.70;;;3.65;;
73428;SDS011;61643;49.564;17.412;2022-08-01T12:55:03;4.18;;;3.38;;
73428;SDS011;61643;49.564;17.412;2022-08-01T12:57:31;4.10;;;3.28;;
73428;SDS011;61643;49.564;17.412;2022-08-01T13:00:08;4.30;;;3.60;;
73428;SDS011;61643;49.564;17.412;2022-08-01T13:02:34;5.85;;;3.65;;
73428;SDS011;61643;49.564;17.412;2022-08-01T13:05:00;3.88;;;3.38;;
73428;SDS011;61643;49.564;17.412;2022-08-01T13:07:36;3.92;;;3.05;;
73428;SDS011;61643;49.564;17.412;2022-08-01T13:10:12;4.03;;;2.92;;
73428;SDS011;61643;49.564;17.412;2022-08-01T13:12:39;4.20;;;3.10;;
73428;SDS011;61643;49.564;17.412;2022-08-01T13:15:16;3.88;;;2.90;;
73428;SDS011;61643;49.564;17.412;2022-08-01T13:17:46;3.33;;;3.08;;
73428;SDS011;61643;49.564;17.412;2022-08-01T13:20:20;4.77;;;3.00;;
73428;SDS011;61643;49.564;17.412;2022-08-01T13:23:10;4.80;;;3.05;;
73428;SDS011;61643;49.564;17.412;2022-08-01T13:25:53;3.20;;;2.90;;
73428;SDS011;61643;49.564;17.412;2022-08-01T13:28:24;4.00;;;2.72;;
73428;SDS011;61643;49.564;17.412;2022-08-01T13:30:55;3.38;;;3.00;;
73428;SDS011;61643;49.564;17.412;2022-08-01T13:33:27;3.97;;;3.00;;
73428;SDS011;61643;49.564;17.412;2022-08-01T13:36:05;3.30;;;3.00;;
73428;SDS011;61643;49.564;17.412;2022-08-01T13:38:31;3.55;;;2.75;;
73428;SDS011;61643;49.564;17.412;2022-08-01T13:41:15;9.65;;;3.58;;
73428;SDS011;61643;49.564;17.412;2022-08-01T13:43:41;3.40;;;2.85;;
73428;SDS011;61643;49.564;17.412;2022-08-01T13:46:06;4.28;;;3.00;;
73428;SDS011;61643;49.564;17.412;2022-08-01T13:48:32;5.10;;;3.53;;
73428;SDS011;61643;49.564;17.412;2022-08-01T13:50:57;3.10;;;2.78;;
73428;SDS011;61643;49.564;17.412;2022-08-01T13:53:23;5.22;;;3.20;;
73428;SDS011;61643;49.564;17.412;2022-08-01T13:55:48;4.23;;;2.93;;
73428;SDS011;61643;49.564;17.412;2022-08-01T13:58:14;2.78;;;2.55;;
73428;SDS011;61643;49.564;17.412;2022-08-01T14:00:40;3.70;;;2.75;;
73428;SDS011;61643;49.564;17.412;2022-08-01T14:03:05;3.10;;;2.80;;
73428;SDS011;61643;49.564;17.412;2022-08-01T14:05:31;3.03;;;2.60;;
73428;SDS011;61643;49.564;17.412;2022-08-01T14:07:56;3.30;;;2.65;;
73428;SDS011;61643;49.564;17.412;2022-08-01T14:10:22;3.63;;;2.50;;
73428;SDS011;61643;49.564;17.412;2022-08-01T14:12:48;2.70;;;2.50;;
73428;SDS011;61643;49.564;17.412;2022-08-01T14:15:14;3.83;;;2.53;;
73428;SDS011;61643;49.564;17.412;2022-08-01T14:17:40;3.38;;;2.38;;
73428;SDS011;61643;49.564;17.412;2022-08-01T14:20:06;3.13;;;2.20;;
73428;SDS011;61643;49.564;17.412;2022-08-01T14:22:31;2.40;;;2.20;;
73428;SDS011;61643;49.564;17.412;2022-08-01T14:24:57;2.60;;;2.40;;
73428;SDS011;61643;49.564;17.412;2022-08-01T14:27:24;2.58;;;2.33;;
73428;SDS011;61643;49.564;17.412;2022-08-01T14:29:49;3.42;;;2.35;;
73428;SDS011;61643;49.564;17.412;2022-08-01T14:32:14;2.67;;;2.00;;
73428;SDS011;61643;49.564;17.412;2022-08-01T14:34:40;2.33;;;2.13;;
73428;SDS011;61643;49.564;17.412;2022-08-01T14:37:05;2.50;;;2.30;;
73428;SDS011;61643;49.564;17.412;2022-08-01T14:39:30;2.50;;;2.17;;
73428;SDS011;61643;49.564;17.412;2022-08-01T14:41:56;2.60;;;2.40;;
73428;SDS011;61643;49.564;17.412;2022-08-01T14:44:21;2.67;;;2.47;;
73428;SDS011;61643;49.564;17.412;2022-08-01T14:46:46;3.03;;;2.83;;
73428;SDS011;61643;49.564;17.412;2022-08-01T14:49:13;3.38;;;2.60;;
73428;SDS011;61643;49.564;17.412;2022-08-01T14:51:39;2.92;;;2.63;;
73428;SDS011;61643;49.564;17.412;2022-08-01T14:54:05;2.83;;;2.63;;
73428;SDS011;61643;49.564;17.412;2022-08-01T14:56:30;3.03;;;2.75;;
73428;SDS011;61643;49.564;17.412;2022-08-01T14:58:56;4.20;;;2.47;;
73428;SDS011;61643;49.564;17.412;2022-08-01T15:01:21;2.53;;;2.33;;
73428;SDS011;61643;49.564;17.412;2022-08-01T15:03:47;4.53;;;2.80;;
73428;SDS011;61643;49.564;17.412;2022-08-01T15:06:13;2.80;;;2.53;;
73428;SDS011;61643;49.564;17.412;2022-08-01T15:08:38;2.85;;;2.47;;
73428;SDS011;61643;49.564;17.412;2022-08-01T15:11:04;3.78;;;2.80;;
73428;SDS011;61643;49.564;17.412;2022-08-01T15:13:29;3.85;;;2.95;;
73428;SDS011;61643;49.564;17.412;2022-08-01T15:15:55;3.42;;;2.70;;
73428;SDS011;61643;49.564;17.412;2022-08-01T15:18:20;2.90;;;2.60;;
73428;SDS011;61643;49.564;17.412;2022-08-01T15:20:45;3.53;;;3.00;;
73428;SDS011;61643;49.564;17.412;2022-08-01T15:23:12;3.40;;;2.97;;
73428;SDS011;61643;49.564;17.412;2022-08-01T15:25:38;2.97;;;2.72;;
73428;SDS011;61643;49.564;17.412;2022-08-01T15:28:03;3.10;;;2.77;;
73428;SDS011;61643;49.564;17.412;2022-08-01T15:30:29;3.37;;;2.90;;